| |
Missouri Department of Transportation

Social Media Facebook Twitter Flickr Instagram YouTube RSS

Current AWOS Information

 
AWOS Home - General Info for all Airports
Current AWOS for all Airports - Current METAR for all Airports
Glossary - Disclaimer - Other Links


MEXICO--MEXICO MEMORIAL--KMYJ
 
Recent AWOS History
 
07/27/16     08:12 PM CDT      01:12 GMT
Air Temperature 82°F (28°C ) 1st Cloud Layer Scattered at 4,100 feet
Dew Point 77°F (25°C) 2nd Cloud Layer  
Barometric Pressure 30.0 in Hg. 3rd Cloud Layer  
Wind Speed 3 mph (3 knots) Density Altitude 2400 feet
Peak Wind Gusts   Variable Wind Directions  
Wind Direction Quadrant(010°) Variable Visibility  
Visibility 10 statute miles  

Thunderstorm and Precipitation Identification:  Missing
Thunderstorm Remarks: 

Current METAR Record: METAR KMYJ 270059Z AUTO 01003KT 10SM CLR 28/25 A3000 RMK AO2 PWINO

 

 

 

About Us
How Do I...
Contact Us
Missouri Department of Transportation
Central Office
105 W. Capitol Avenue
Jefferson City, MO 65102
1-888-ASK-MODOT (275-6636)
1-866-831-6277 (Motor Carrier Services)
Driver's License Offices
horz_bar
| | |
Missouri State Government
© 2013 Missouri Department of Transportation. All Rights Reserved.   Privacy Policy.
 
 
 
 
RSS FeedYoutubeBlogFlickrTwitter Facebook